ΕΜΥ, Εθνική Μετεωρολογική Υπηρεσία - Δελτία Καιρού, Προγνώσεις

ΑΕΡΟΝΑΥΤΙΛΙΑ

GREEK AIRPORTS CODES

LGKJ 262300Z AUTO 00000KT //// // ////// 14/10 Q1019 RE//=

EUROPEAN AIRPORTS CODES

LFPO 262300Z 23009KT 9999 FEW048 SCT160 03/00 Q1012 NOSIG=